sensor_id;sensor_type;location;lat;lon;timestamp;P1;durP1;ratioP1;P2;durP2;ratioP2
14143;SDS011;7152;48.348;10.980;2022-10-16T00:01:34;3.97;;;2.27;;
14143;SDS011;7152;48.348;10.980;2022-10-16T00:04:01;3.00;;;2.00;;
14143;SDS011;7152;48.348;10.980;2022-10-16T00:06:27;2.47;;;2.00;;
14143;SDS011;7152;48.348;10.980;2022-10-16T00:08:53;3.03;;;1.80;;
14143;SDS011;7152;48.348;10.980;2022-10-16T00:11:20;3.43;;;2.00;;
14143;SDS011;7152;48.348;10.980;2022-10-16T00:13:48;3.10;;;1.90;;
14143;SDS011;7152;48.348;10.980;2022-10-16T00:16:17;2.43;;;2.00;;
14143;SDS011;7152;48.348;10.980;2022-10-16T00:18:44;2.23;;;1.73;;
14143;SDS011;7152;48.348;10.980;2022-10-16T00:21:14;2.03;;;1.87;;
14143;SDS011;7152;48.348;10.980;2022-10-16T00:23:42;2.07;;;1.70;;
14143;SDS011;7152;48.348;10.980;2022-10-16T00:26:09;2.67;;;1.93;;
14143;SDS011;7152;48.348;10.980;2022-10-16T00:28:38;2.23;;;2.03;;
14143;SDS011;7152;48.348;10.980;2022-10-16T00:31:04;2.83;;;2.17;;
14143;SDS011;7152;48.348;10.980;2022-10-16T00:33:32;2.63;;;2.30;;
14143;SDS011;7152;48.348;10.980;2022-10-16T00:35:59;2.60;;;2.30;;
14143;SDS011;7152;48.348;10.980;2022-10-16T00:38:25;4.57;;;2.53;;
14143;SDS011;7152;48.348;10.980;2022-10-16T00:40:51;2.47;;;2.00;;
14143;SDS011;7152;48.348;10.980;2022-10-16T00:46:01;3.10;;;2.20;;
14143;SDS011;7152;48.348;10.980;2022-10-16T00:48:29;3.53;;;2.20;;
14143;SDS011;7152;48.348;10.980;2022-10-16T00:50:55;3.40;;;2.00;;
14143;SDS011;7152;48.348;10.980;2022-10-16T00:53:22;1.93;;;1.70;;
14143;SDS011;7152;48.348;10.980;2022-10-16T00:55:49;2.37;;;2.00;;
14143;SDS011;7152;48.348;10.980;2022-10-16T00:58:16;3.60;;;1.73;;
14143;SDS011;7152;48.348;10.980;2022-10-16T01:00:41;2.00;;;1.80;;
14143;SDS011;7152;48.348;10.980;2022-10-16T01:03:24;2.50;;;1.90;;
14143;SDS011;7152;48.348;10.980;2022-10-16T01:05:58;5.50;;;2.07;;
14143;SDS011;7152;48.348;10.980;2022-10-16T01:08:27;2.90;;;1.83;;
14143;SDS011;7152;48.348;10.980;2022-10-16T01:11:17;2.77;;;1.97;;
14143;SDS011;7152;48.348;10.980;2022-10-16T01:13:49;3.10;;;2.30;;
14143;SDS011;7152;48.348;10.980;2022-10-16T01:16:34;4.53;;;2.27;;
14143;SDS011;7152;48.348;10.980;2022-10-16T01:19:17;2.40;;;2.00;;
14143;SDS011;7152;48.348;10.980;2022-10-16T01:21:56;2.30;;;2.10;;
14143;SDS011;7152;48.348;10.980;2022-10-16T01:24:29;2.43;;;2.00;;
14143;SDS011;7152;48.348;10.980;2022-10-16T01:27:12;2.40;;;1.77;;
14143;SDS011;7152;48.348;10.980;2022-10-16T01:35:05;1.83;;;1.73;;
14143;SDS011;7152;48.348;10.980;2022-10-16T01:38:00;2.50;;;1.70;;
14143;SDS011;7152;48.348;10.980;2022-10-16T01:40:32;2.20;;;2.00;;
14143;SDS011;7152;48.348;10.980;2022-10-16T01:43:04;2.70;;;2.37;;
14143;SDS011;7152;48.348;10.980;2022-10-16T01:45:33;2.80;;;1.60;;
14143;SDS011;7152;48.348;10.980;2022-10-16T01:48:00;2.87;;;1.80;;
14143;SDS011;7152;48.348;10.980;2022-10-16T01:50:30;3.60;;;1.57;;
14143;SDS011;7152;48.348;10.980;2022-10-16T01:52:59;3.23;;;1.80;;
14143;SDS011;7152;48.348;10.980;2022-10-16T01:55:28;2.73;;;1.60;;
14143;SDS011;7152;48.348;10.980;2022-10-16T01:57:57;2.10;;;1.47;;
14143;SDS011;7152;48.348;10.980;2022-10-16T02:00:25;1.97;;;1.57;;
14143;SDS011;7152;48.348;10.980;2022-10-16T02:02:52;1.70;;;1.60;;
14143;SDS011;7152;48.348;10.980;2022-10-16T02:05:22;3.00;;;1.60;;
14143;SDS011;7152;48.348;10.980;2022-10-16T02:08:07;2.93;;;1.50;;
14143;SDS011;7152;48.348;10.980;2022-10-16T02:10:34;2.10;;;1.50;;
14143;SDS011;7152;48.348;10.980;2022-10-16T02:13:03;3.70;;;1.60;;
14143;SDS011;7152;48.348;10.980;2022-10-16T02:15:46;3.27;;;1.90;;
14143;SDS011;7152;48.348;10.980;2022-10-16T02:18:12;2.90;;;1.63;;
14143;SDS011;7152;48.348;10.980;2022-10-16T02:20:42;3.07;;;1.63;;
14143;SDS011;7152;48.348;10.980;2022-10-16T02:23:12;4.17;;;1.50;;
14143;SDS011;7152;48.348;10.980;2022-10-16T02:25:45;3.83;;;1.87;;
14143;SDS011;7152;48.348;10.980;2022-10-16T02:28:17;2.50;;;1.83;;
14143;SDS011;7152;48.348;10.980;2022-10-16T02:30:49;4.40;;;1.90;;
14143;SDS011;7152;48.348;10.980;2022-10-16T02:33:20;3.30;;;2.23;;
14143;SDS011;7152;48.348;10.980;2022-10-16T02:35:48;2.17;;;1.97;;
14143;SDS011;7152;48.348;10.980;2022-10-16T02:38:15;1.70;;;1.60;;
14143;SDS011;7152;48.348;10.980;2022-10-16T02:40:42;2.57;;;1.83;;
14143;SDS011;7152;48.348;10.980;2022-10-16T02:43:09;1.97;;;1.57;;
14143;SDS011;7152;48.348;10.980;2022-10-16T02:45:35;2.37;;;1.50;;
14143;SDS011;7152;48.348;10.980;2022-10-16T02:48:01;2.73;;;1.87;;
14143;SDS011;7152;48.348;10.980;2022-10-16T02:50:27;2.90;;;1.80;;
14143;SDS011;7152;48.348;10.980;2022-10-16T02:52:52;3.17;;;2.07;;
14143;SDS011;7152;48.348;10.980;2022-10-16T02:55:18;3.40;;;1.67;;
14143;SDS011;7152;48.348;10.980;2022-10-16T02:57:44;2.57;;;1.63;;
14143;SDS011;7152;48.348;10.980;2022-10-16T03:00:11;2.00;;;1.83;;
14143;SDS011;7152;48.348;10.980;2022-10-16T03:02:38;3.40;;;1.50;;
14143;SDS011;7152;48.348;10.980;2022-10-16T03:05:04;5.67;;;1.87;;
14143;SDS011;7152;48.348;10.980;2022-10-16T03:07:30;3.63;;;1.60;;
14143;SDS011;7152;48.348;10.980;2022-10-16T03:09:56;2.50;;;1.70;;
14143;SDS011;7152;48.348;10.980;2022-10-16T03:12:22;3.60;;;1.87;;
14143;SDS011;7152;48.348;10.980;2022-10-16T03:14:47;2.80;;;1.80;;
14143;SDS011;7152;48.348;10.980;2022-10-16T03:17:13;1.60;;;1.40;;
14143;SDS011;7152;48.348;10.980;2022-10-16T03:19:41;4.57;;;1.80;;
14143;SDS011;7152;48.348;10.980;2022-10-16T03:22:07;2.40;;;1.70;;
14143;SDS011;7152;48.348;10.980;2022-10-16T03:24:33;2.03;;;1.50;;
14143;SDS011;7152;48.348;10.980;2022-10-16T03:26:58;1.57;;;1.47;;
14143;SDS011;7152;48.348;10.980;2022-10-16T03:29:25;1.63;;;1.53;;
14143;SDS011;7152;48.348;10.980;2022-10-16T03:31:51;2.63;;;1.70;;
14143;SDS011;7152;48.348;10.980;2022-10-16T03:34:16;2.73;;;1.67;;
14143;SDS011;7152;48.348;10.980;2022-10-16T03:36:42;3.23;;;1.63;;
14143;SDS011;7152;48.348;10.980;2022-10-16T03:39:07;2.90;;;1.70;;
14143;SDS011;7152;48.348;10.980;2022-10-16T03:41:33;2.50;;;2.00;;
14143;SDS011;7152;48.348;10.980;2022-10-16T03:43:59;3.30;;;1.70;;
14143;SDS011;7152;48.348;10.980;2022-10-16T03:46:24;2.37;;;1.77;;
14143;SDS011;7152;48.348;10.980;2022-10-16T03:48:50;2.33;;;1.50;;
14143;SDS011;7152;48.348;10.980;2022-10-16T03:51:15;2.67;;;1.73;;
14143;SDS011;7152;48.348;10.980;2022-10-16T03:53:41;1.77;;;1.60;;
14143;SDS011;7152;48.348;10.980;2022-10-16T03:56:07;1.70;;;1.60;;
14143;SDS011;7152;48.348;10.980;2022-10-16T03:58:32;1.70;;;1.60;;
14143;SDS011;7152;48.348;10.980;2022-10-16T04:00:58;3.13;;;1.70;;
14143;SDS011;7152;48.348;10.980;2022-10-16T04:03:23;2.00;;;1.50;;
14143;SDS011;7152;48.348;10.980;2022-10-16T04:05:49;4.40;;;1.57;;
14143;SDS011;7152;48.348;10.980;2022-10-16T04:08:15;2.17;;;1.20;;
14143;SDS011;7152;48.348;10.980;2022-10-16T04:10:42;2.03;;;1.30;;
14143;SDS011;7152;48.348;10.980;2022-10-16T04:13:08;6.60;;;2.00;;
14143;SDS011;7152;48.348;10.980;2022-10-16T04:15:34;2.40;;;1.50;;
14143;SDS011;7152;48.348;10.980;2022-10-16T04:18:00;1.93;;;1.30;;
14143;SDS011;7152;48.348;10.980;2022-10-16T04:20:26;1.83;;;1.40;;
14143;SDS011;7152;48.348;10.980;2022-10-16T04:22:51;3.13;;;1.53;;
14143;SDS011;7152;48.348;10.980;2022-10-16T04:25:17;2.10;;;1.30;;
14143;SDS011;7152;48.348;10.980;2022-10-16T04:27:42;1.83;;;1.40;;
14143;SDS011;7152;48.348;10.980;2022-10-16T04:30:08;3.10;;;1.33;;
14143;SDS011;7152;48.348;10.980;2022-10-16T04:32:34;2.50;;;1.40;;
14143;SDS011;7152;48.348;10.980;2022-10-16T04:35:00;2.60;;;1.40;;
14143;SDS011;7152;48.348;10.980;2022-10-16T04:37:25;1.80;;;1.43;;
14143;SDS011;7152;48.348;10.980;2022-10-16T04:39:52;2.17;;;1.40;;
14143;SDS011;7152;48.348;10.980;2022-10-16T04:42:19;2.10;;;1.57;;
14143;SDS011;7152;48.348;10.980;2022-10-16T04:44:45;2.43;;;1.37;;
14143;SDS011;7152;48.348;10.980;2022-10-16T04:47:11;2.20;;;1.50;;
14143;SDS011;7152;48.348;10.980;2022-10-16T04:49:37;1.80;;;1.70;;
14143;SDS011;7152;48.348;10.980;2022-10-16T04:52:03;2.07;;;1.70;;
14143;SDS011;7152;48.348;10.980;2022-10-16T04:54:28;2.77;;;1.83;;
14143;SDS011;7152;48.348;10.980;2022-10-16T04:56:54;2.87;;;1.67;;
14143;SDS011;7152;48.348;10.980;2022-10-16T04:59:20;2.63;;;1.57;;
14143;SDS011;7152;48.348;10.980;2022-10-16T05:01:47;2.80;;;1.30;;
14143;SDS011;7152;48.348;10.980;2022-10-16T05:04:12;2.43;;;1.50;;
14143;SDS011;7152;48.348;10.980;2022-10-16T05:06:39;4.10;;;1.60;;
14143;SDS011;7152;48.348;10.980;2022-10-16T05:09:05;2.40;;;1.93;;
14143;SDS011;7152;48.348;10.980;2022-10-16T05:11:32;3.73;;;1.70;;
14143;SDS011;7152;48.348;10.980;2022-10-16T05:13:57;2.40;;;1.97;;
14143;SDS011;7152;48.348;10.980;2022-10-16T05:16:23;6.03;;;2.00;;
14143;SDS011;7152;48.348;10.980;2022-10-16T05:18:49;2.80;;;1.70;;
14143;SDS011;7152;48.348;10.980;2022-10-16T05:21:16;2.57;;;2.30;;
14143;SDS011;7152;48.348;10.980;2022-10-16T05:23:41;2.53;;;2.33;;
14143;SDS011;7152;48.348;10.980;2022-10-16T05:26:07;3.60;;;2.03;;
14143;SDS011;7152;48.348;10.980;2022-10-16T05:28:33;4.43;;;2.00;;
14143;SDS011;7152;48.348;10.980;2022-10-16T05:31:03;5.60;;;2.00;;
14143;SDS011;7152;48.348;10.980;2022-10-16T05:33:32;2.87;;;1.87;;
14143;SDS011;7152;48.348;10.980;2022-10-16T05:36:05;3.00;;;1.97;;
14143;SDS011;7152;48.348;10.980;2022-10-16T05:38:32;3.47;;;2.00;;
14143;SDS011;7152;48.348;10.980;2022-10-16T05:40:59;2.27;;;1.67;;
14143;SDS011;7152;48.348;10.980;2022-10-16T05:43:24;4.00;;;2.30;;
14143;SDS011;7152;48.348;10.980;2022-10-16T05:45:53;2.90;;;1.90;;
14143;SDS011;7152;48.348;10.980;2022-10-16T05:48:20;2.80;;;2.07;;
14143;SDS011;7152;48.348;10.980;2022-10-16T05:50:45;3.37;;;1.97;;
14143;SDS011;7152;48.348;10.980;2022-10-16T05:53:11;2.20;;;2.00;;
14143;SDS011;7152;48.348;10.980;2022-10-16T05:55:37;3.03;;;1.90;;
14143;SDS011;7152;48.348;10.980;2022-10-16T05:58:02;2.40;;;1.70;;
14143;SDS011;7152;48.348;10.980;2022-10-16T06:00:28;2.20;;;1.90;;
14143;SDS011;7152;48.348;10.980;2022-10-16T06:02:53;2.60;;;1.87;;
14143;SDS011;7152;48.348;10.980;2022-10-16T06:05:19;3.13;;;1.90;;
14143;SDS011;7152;48.348;10.980;2022-10-16T06:07:44;2.70;;;2.00;;
14143;SDS011;7152;48.348;10.980;2022-10-16T06:10:10;6.43;;;2.07;;
14143;SDS011;7152;48.348;10.980;2022-10-16T06:12:36;5.23;;;2.17;;
14143;SDS011;7152;48.348;10.980;2022-10-16T06:15:01;3.00;;;2.07;;
14143;SDS011;7152;48.348;10.980;2022-10-16T06:17:27;2.73;;;2.13;;
14143;SDS011;7152;48.348;10.980;2022-10-16T06:19:53;3.23;;;1.90;;
14143;SDS011;7152;48.348;10.980;2022-10-16T06:22:18;2.70;;;1.80;;
14143;SDS011;7152;48.348;10.980;2022-10-16T06:24:44;1.77;;;1.67;;
14143;SDS011;7152;48.348;10.980;2022-10-16T06:27:11;2.30;;;2.10;;
14143;SDS011;7152;48.348;10.980;2022-10-16T06:29:36;3.30;;;2.20;;
14143;SDS011;7152;48.348;10.980;2022-10-16T06:32:02;4.87;;;2.00;;
14143;SDS011;7152;48.348;10.980;2022-10-16T06:34:28;2.47;;;1.70;;
14143;SDS011;7152;48.348;10.980;2022-10-16T06:36:53;2.33;;;1.67;;
14143;SDS011;7152;48.348;10.980;2022-10-16T06:39:20;2.10;;;2.00;;
14143;SDS011;7152;48.348;10.980;2022-10-16T06:41:45;2.40;;;1.83;;
14143;SDS011;7152;48.348;10.980;2022-10-16T06:44:11;3.87;;;1.63;;
14143;SDS011;7152;48.348;10.980;2022-10-16T06:46:37;2.77;;;1.67;;
14143;SDS011;7152;48.348;10.980;2022-10-16T06:49:02;2.03;;;1.60;;
14143;SDS011;7152;48.348;10.980;2022-10-16T06:51:28;2.80;;;1.83;;
14143;SDS011;7152;48.348;10.980;2022-10-16T06:53:55;1.60;;;1.50;;
14143;SDS011;7152;48.348;10.980;2022-10-16T06:56:24;3.37;;;1.40;;
14143;SDS011;7152;48.348;10.980;2022-10-16T06:58:51;1.70;;;1.50;;
14143;SDS011;7152;48.348;10.980;2022-10-16T07:01:18;2.60;;;1.40;;
14143;SDS011;7152;48.348;10.980;2022-10-16T07:03:46;1.23;;;1.17;;
14143;SDS011;7152;48.348;10.980;2022-10-16T07:06:13;5.00;;;1.40;;
14143;SDS011;7152;48.348;10.980;2022-10-16T07:08:42;1.53;;;1.30;;
14143;SDS011;7152;48.348;10.980;2022-10-16T07:11:10;1.87;;;1.50;;
14143;SDS011;7152;48.348;10.980;2022-10-16T07:13:41;1.70;;;1.60;;
14143;SDS011;7152;48.348;10.980;2022-10-16T07:16:09;1.70;;;1.30;;
14143;SDS011;7152;48.348;10.980;2022-10-16T07:18:37;2.13;;;1.60;;
14143;SDS011;7152;48.348;10.980;2022-10-16T07:21:05;1.37;;;1.27;;
14143;SDS011;7152;48.348;10.980;2022-10-16T07:23:35;1.63;;;1.20;;
14143;SDS011;7152;48.348;10.980;2022-10-16T07:26:02;2.23;;;1.33;;
14143;SDS011;7152;48.348;10.980;2022-10-16T07:28:29;2.20;;;1.33;;
14143;SDS011;7152;48.348;10.980;2022-10-16T07:30:54;3.17;;;1.50;;
14143;SDS011;7152;48.348;10.980;2022-10-16T07:33:21;2.37;;;1.67;;
14143;SDS011;7152;48.348;10.980;2022-10-16T07:35:47;1.60;;;1.50;;
14143;SDS011;7152;48.348;10.980;2022-10-16T07:38:16;1.53;;;1.43;;
14143;SDS011;7152;48.348;10.980;2022-10-16T07:40:42;1.40;;;1.30;;
14143;SDS011;7152;48.348;10.980;2022-10-16T07:43:08;3.13;;;1.17;;
14143;SDS011;7152;48.348;10.980;2022-10-16T07:45:34;1.50;;;1.10;;
14143;SDS011;7152;48.348;10.980;2022-10-16T07:47:59;1.20;;;1.10;;
14143;SDS011;7152;48.348;10.980;2022-10-16T07:50:25;2.70;;;1.23;;
14143;SDS011;7152;48.348;10.980;2022-10-16T07:52:50;2.40;;;1.03;;
14143;SDS011;7152;48.348;10.980;2022-10-16T07:55:16;1.77;;;1.30;;
14143;SDS011;7152;48.348;10.980;2022-10-16T07:57:42;2.47;;;1.50;;
14143;SDS011;7152;48.348;10.980;2022-10-16T08:00:08;1.17;;;1.00;;
14143;SDS011;7152;48.348;10.980;2022-10-16T08:02:38;1.50;;;1.10;;
14143;SDS011;7152;48.348;10.980;2022-10-16T08:05:07;2.10;;;1.10;;
14143;SDS011;7152;48.348;10.980;2022-10-16T08:07:33;1.80;;;1.30;;
14143;SDS011;7152;48.348;10.980;2022-10-16T08:09:58;4.03;;;1.37;;
14143;SDS011;7152;48.348;10.980;2022-10-16T08:12:25;1.40;;;1.30;;
14143;SDS011;7152;48.348;10.980;2022-10-16T08:14:50;1.40;;;1.10;;
14143;SDS011;7152;48.348;10.980;2022-10-16T08:17:16;1.00;;;1.00;;
14143;SDS011;7152;48.348;10.980;2022-10-16T08:19:45;2.33;;;1.00;;
14143;SDS011;7152;48.348;10.980;2022-10-16T08:22:12;1.23;;;1.13;;
14143;SDS011;7152;48.348;10.980;2022-10-16T08:24:39;2.13;;;1.03;;
14143;SDS011;7152;48.348;10.980;2022-10-16T08:27:04;3.57;;;0.90;;
14143;SDS011;7152;48.348;10.980;2022-10-16T08:29:30;1.00;;;0.63;;
14143;SDS011;7152;48.348;10.980;2022-10-16T08:31:56;3.17;;;1.20;;
14143;SDS011;7152;48.348;10.980;2022-10-16T08:34:21;1.17;;;1.07;;
14143;SDS011;7152;48.348;10.980;2022-10-16T08:36:47;1.70;;;1.03;;
14143;SDS011;7152;48.348;10.980;2022-10-16T08:39:13;1.70;;;1.00;;
14143;SDS011;7152;48.348;10.980;2022-10-16T08:44:55;1.50;;;1.10;;
14143;SDS011;7152;48.348;10.980;2022-10-16T08:50:35;2.97;;;0.90;;
14143;SDS011;7152;48.348;10.980;2022-10-16T08:53:03;4.63;;;1.00;;
14143;SDS011;7152;48.348;10.980;2022-10-16T08:55:31;1.43;;;1.00;;
14143;SDS011;7152;48.348;10.980;2022-10-16T08:58:14;2.07;;;1.07;;
14143;SDS011;7152;48.348;10.980;2022-10-16T09:00:41;2.87;;;0.93;;
14143;SDS011;7152;48.348;10.980;2022-10-16T09:11:59;1.63;;;0.80;;
14143;SDS011;7152;48.348;10.980;2022-10-16T09:14:57;2.77;;;1.03;;
14143;SDS011;7152;48.348;10.980;2022-10-16T09:20:36;0.70;;;0.70;;
14143;SDS011;7152;48.348;10.980;2022-10-16T09:23:19;0.70;;;0.70;;
14143;SDS011;7152;48.348;10.980;2022-10-16T09:25:52;1.10;;;0.63;;
14143;SDS011;7152;48.348;10.980;2022-10-16T09:28:19;1.53;;;1.00;;
14143;SDS011;7152;48.348;10.980;2022-10-16T09:30:45;2.20;;;0.60;;
14143;SDS011;7152;48.348;10.980;2022-10-16T09:33:13;0.60;;;0.60;;
14143;SDS011;7152;48.348;10.980;2022-10-16T09:35:43;1.53;;;0.60;;
14143;SDS011;7152;48.348;10.980;2022-10-16T09:38:21;0.50;;;0.50;;
14143;SDS011;7152;48.348;10.980;2022-10-16T09:40:47;2.00;;;0.60;;
14143;SDS011;7152;48.348;10.980;2022-10-16T09:45:54;1.30;;;0.60;;
14143;SDS011;7152;48.348;10.980;2022-10-16T09:48:20;1.90;;;1.07;;
14143;SDS011;7152;48.348;10.980;2022-10-16T09:51:00;0.77;;;0.60;;
14143;SDS011;7152;48.348;10.980;2022-10-16T09:56:33;0.90;;;0.70;;
14143;SDS011;7152;48.348;10.980;2022-10-16T09:59:13;1.17;;;0.60;;
14143;SDS011;7152;48.348;10.980;2022-10-16T10:04:22;1.17;;;0.70;;
14143;SDS011;7152;48.348;10.980;2022-10-16T10:06:51;1.47;;;0.73;;
14143;SDS011;7152;48.348;10.980;2022-10-16T10:09:37;1.17;;;0.80;;
14143;SDS011;7152;48.348;10.980;2022-10-16T10:12:06;2.37;;;0.70;;
14143;SDS011;7152;48.348;10.980;2022-10-16T10:15:04;1.30;;;0.70;;
14143;SDS011;7152;48.348;10.980;2022-10-16T10:17:55;1.03;;;0.70;;
14143;SDS011;7152;48.348;10.980;2022-10-16T10:20:23;1.17;;;0.67;;
14143;SDS011;7152;48.348;10.980;2022-10-16T10:22:53;1.80;;;0.80;;
14143;SDS011;7152;48.348;10.980;2022-10-16T10:36:14;1.43;;;0.70;;
14143;SDS011;7152;48.348;10.980;2022-10-16T10:47:22;0.93;;;0.60;;
14143;SDS011;7152;48.348;10.980;2022-10-16T10:50:07;0.50;;;0.50;;
14143;SDS011;7152;48.348;10.980;2022-10-16T11:14:14;1.77;;;0.80;;
14143;SDS011;7152;48.348;10.980;2022-10-16T11:17:04;1.00;;;0.83;;
14143;SDS011;7152;48.348;10.980;2022-10-16T11:19:37;1.73;;;0.70;;
14143;SDS011;7152;48.348;10.980;2022-10-16T11:24:54;0.67;;;0.60;;
14143;SDS011;7152;48.348;10.980;2022-10-16T11:27:36;0.90;;;0.50;;
14143;SDS011;7152;48.348;10.980;2022-10-16T11:30:04;1.33;;;0.80;;
14143;SDS011;7152;48.348;10.980;2022-10-16T11:38:07;0.40;;;0.40;;
14143;SDS011;7152;48.348;10.980;2022-10-16T11:40:39;1.45;;;0.60;;
14143;SDS011;7152;48.348;10.980;2022-10-16T11:43:16;2.15;;;0.70;;
14143;SDS011;7152;48.348;10.980;2022-10-16T11:45:49;1.02;;;0.60;;
14143;SDS011;7152;48.348;10.980;2022-10-16T11:48:27;0.55;;;0.55;;
14143;SDS011;7152;48.348;10.980;2022-10-16T11:54:20;1.85;;;0.77;;
14143;SDS011;7152;48.348;10.980;2022-10-16T11:56:54;0.50;;;0.50;;
14143;SDS011;7152;48.348;10.980;2022-10-16T11:59:33;0.98;;;0.70;;
14143;SDS011;7152;48.348;10.980;2022-10-16T12:02:28;0.98;;;0.60;;
14143;SDS011;7152;48.348;10.980;2022-10-16T12:08:06;3.03;;;0.60;;
14143;SDS011;7152;48.348;10.980;2022-10-16T12:10:38;0.85;;;0.60;;
14143;SDS011;7152;48.348;10.980;2022-10-16T12:18:37;0.77;;;0.40;;
14143;SDS011;7152;48.348;10.980;2022-10-16T12:21:04;0.47;;;0.40;;
14143;SDS011;7152;48.348;10.980;2022-10-16T12:23:53;1.52;;;0.55;;
14143;SDS011;7152;48.348;10.980;2022-10-16T12:26:28;1.27;;;0.50;;
14143;SDS011;7152;48.348;10.980;2022-10-16T12:29:12;0.57;;;0.52;;
14143;SDS011;7152;48.348;10.980;2022-10-16T12:31:45;1.55;;;0.80;;
14143;SDS011;7152;48.348;10.980;2022-10-16T12:34:54;0.70;;;0.60;;
14143;SDS011;7152;48.348;10.980;2022-10-16T12:37:12;6.88;;;0.70;;
14143;SDS011;7152;48.348;10.980;2022-10-16T12:39:53;2.42;;;1.15;;
14143;SDS011;7152;48.348;10.980;2022-10-16T12:42:22;1.88;;;0.70;;
14143;SDS011;7152;48.348;10.980;2022-10-16T12:44:51;0.60;;;0.40;;
14143;SDS011;7152;48.348;10.980;2022-10-16T12:47:19;1.52;;;0.60;;
14143;SDS011;7152;48.348;10.980;2022-10-16T12:50:25;1.52;;;0.77;;
14143;SDS011;7152;48.348;10.980;2022-10-16T12:53:03;0.50;;;0.50;;
14143;SDS011;7152;48.348;10.980;2022-10-16T12:55:44;0.50;;;0.50;;
14143;SDS011;7152;48.348;10.980;2022-10-16T13:00:59;1.42;;;0.50;;
14143;SDS011;7152;48.348;10.980;2022-10-16T13:12:00;3.28;;;0.75;;
14143;SDS011;7152;48.348;10.980;2022-10-16T13:22:29;1.67;;;0.57;;
14143;SDS011;7152;48.348;10.980;2022-10-16T13:28:08;1.92;;;0.45;;
14143;SDS011;7152;48.348;10.980;2022-10-16T13:30:43;1.05;;;0.50;;
14143;SDS011;7152;48.348;10.980;2022-10-16T13:33:37;0.57;;;0.57;;
14143;SDS011;7152;48.348;10.980;2022-10-16T13:36:07;0.60;;;0.60;;
14143;SDS011;7152;48.348;10.980;2022-10-16T13:38:48;1.90;;;0.50;;
14143;SDS011;7152;48.348;10.980;2022-10-16T13:41:25;1.52;;;0.60;;
14143;SDS011;7152;48.348;10.980;2022-10-16T13:43:51;1.38;;;0.68;;
14143;SDS011;7152;48.348;10.980;2022-10-16T13:46:21;2.85;;;0.47;;
14143;SDS011;7152;48.348;10.980;2022-10-16T13:51:57;2.05;;;0.80;;
14143;SDS011;7152;48.348;10.980;2022-10-16T13:54:24;2.75;;;0.77;;
14143;SDS011;7152;48.348;10.980;2022-10-16T13:56:51;1.23;;;0.60;;
14143;SDS011;7152;48.348;10.980;2022-10-16T13:59:32;0.60;;;0.50;;
14143;SDS011;7152;48.348;10.980;2022-10-16T14:01:59;0.75;;;0.75;;
14143;SDS011;7152;48.348;10.980;2022-10-16T14:04:43;1.05;;;0.60;;
14143;SDS011;7152;48.348;10.980;2022-10-16T14:07:18;1.15;;;0.70;;
14143;SDS011;7152;48.348;10.980;2022-10-16T14:09:50;4.97;;;0.90;;
14143;SDS011;7152;48.348;10.980;2022-10-16T14:12:17;1.40;;;0.50;;
14143;SDS011;7152;48.348;10.980;2022-10-16T14:14:44;1.83;;;0.80;;
14143;SDS011;7152;48.348;10.980;2022-10-16T14:17:15;1.50;;;0.70;;
14143;SDS011;7152;48.348;10.980;2022-10-16T14:19:57;1.13;;;0.60;;
14143;SDS011;7152;48.348;10.980;2022-10-16T14:22:35;1.02;;;0.60;;
14143;SDS011;7152;48.348;10.980;2022-10-16T14:28:02;1.73;;;0.93;;
14143;SDS011;7152;48.348;10.980;2022-10-16T14:30:30;3.47;;;0.97;;
14143;SDS011;7152;48.348;10.980;2022-10-16T14:32:59;2.60;;;0.83;;
14143;SDS011;7152;48.348;10.980;2022-10-16T14:35:27;2.30;;;1.13;;
14143;SDS011;7152;48.348;10.980;2022-10-16T14:37:56;2.37;;;0.93;;
14143;SDS011;7152;48.348;10.980;2022-10-16T14:40:24;3.33;;;0.80;;
14143;SDS011;7152;48.348;10.980;2022-10-16T14:42:52;1.63;;;0.77;;
14143;SDS011;7152;48.348;10.980;2022-10-16T14:45:22;1.57;;;0.60;;
14143;SDS011;7152;48.348;10.980;2022-10-16T14:47:52;2.20;;;0.77;;
14143;SDS011;7152;48.348;10.980;2022-10-16T14:50:21;1.70;;;0.90;;
14143;SDS011;7152;48.348;10.980;2022-10-16T14:52:47;1.30;;;0.90;;
14143;SDS011;7152;48.348;10.980;2022-10-16T14:55:13;5.97;;;1.03;;
14143;SDS011;7152;48.348;10.980;2022-10-16T14:57:39;1.53;;;0.67;;
14143;SDS011;7152;48.348;10.980;2022-10-16T15:00:09;1.23;;;1.10;;
14143;SDS011;7152;48.348;10.980;2022-10-16T15:02:43;3.57;;;1.00;;
14143;SDS011;7152;48.348;10.980;2022-10-16T15:05:23;2.13;;;0.80;;
14143;SDS011;7152;48.348;10.980;2022-10-16T15:07:51;2.30;;;0.80;;
14143;SDS011;7152;48.348;10.980;2022-10-16T15:10:18;15.03;;;1.17;;
14143;SDS011;7152;48.348;10.980;2022-10-16T15:12:46;2.30;;;0.90;;
14143;SDS011;7152;48.348;10.980;2022-10-16T15:15:32;2.77;;;0.90;;
14143;SDS011;7152;48.348;10.980;2022-10-16T15:17:58;3.87;;;0.73;;
14143;SDS011;7152;48.348;10.980;2022-10-16T15:20:26;6.17;;;1.43;;
14143;SDS011;7152;48.348;10.980;2022-10-16T15:22:53;1.30;;;0.97;;
14143;SDS011;7152;48.348;10.980;2022-10-16T15:27:50;2.67;;;0.90;;
14143;SDS011;7152;48.348;10.980;2022-10-16T15:30:16;3.83;;;0.80;;
14143;SDS011;7152;48.348;10.980;2022-10-16T15:32:42;6.20;;;1.30;;
14143;SDS011;7152;48.348;10.980;2022-10-16T15:35:08;2.10;;;0.93;;
14143;SDS011;7152;48.348;10.980;2022-10-16T15:37:34;3.27;;;1.13;;
14143;SDS011;7152;48.348;10.980;2022-10-16T15:39:59;3.20;;;1.60;;
14143;SDS011;7152;48.348;10.980;2022-10-16T15:42:25;1.90;;;1.67;;
14143;SDS011;7152;48.348;10.980;2022-10-16T15:44:51;4.13;;;2.30;;
14143;SDS011;7152;48.348;10.980;2022-10-16T15:47:16;3.73;;;1.40;;
14143;SDS011;7152;48.348;10.980;2022-10-16T15:49:42;2.70;;;1.20;;
14143;SDS011;7152;48.348;10.980;2022-10-16T15:52:08;2.53;;;1.50;;
14143;SDS011;7152;48.348;10.980;2022-10-16T15:54:33;1.97;;;1.20;;
14143;SDS011;7152;48.348;10.980;2022-10-16T15:56:59;2.33;;;1.00;;
14143;SDS011;7152;48.348;10.980;2022-10-16T15:59:24;5.43;;;1.57;;
14143;SDS011;7152;48.348;10.980;2022-10-16T16:01:50;4.93;;;1.00;;
14143;SDS011;7152;48.348;10.980;2022-10-16T16:04:16;4.07;;;1.20;;
14143;SDS011;7152;48.348;10.980;2022-10-16T16:06:41;3.23;;;1.30;;
14143;SDS011;7152;48.348;10.980;2022-10-16T16:09:10;3.43;;;1.13;;
14143;SDS011;7152;48.348;10.980;2022-10-16T16:11:36;3.30;;;1.40;;
14143;SDS011;7152;48.348;10.980;2022-10-16T16:14:04;4.17;;;1.70;;
14143;SDS011;7152;48.348;10.980;2022-10-16T16:16:30;7.20;;;1.80;;
14143;SDS011;7152;48.348;10.980;2022-10-16T16:18:58;6.70;;;2.40;;
14143;SDS011;7152;48.348;10.980;2022-10-16T16:21:24;2.53;;;1.50;;
14143;SDS011;7152;48.348;10.980;2022-10-16T16:23:49;5.67;;;1.73;;
14143;SDS011;7152;48.348;10.980;2022-10-16T16:26:22;3.13;;;1.50;;
14143;SDS011;7152;48.348;10.980;2022-10-16T16:28:53;3.43;;;1.43;;
14143;SDS011;7152;48.348;10.980;2022-10-16T16:31:19;2.60;;;1.30;;
14143;SDS011;7152;48.348;10.980;2022-10-16T16:33:48;2.20;;;1.27;;
14143;SDS011;7152;48.348;10.980;2022-10-16T16:36:16;3.23;;;1.13;;
14143;SDS011;7152;48.348;10.980;2022-10-16T16:38:43;3.00;;;1.20;;
14143;SDS011;7152;48.348;10.980;2022-10-16T16:43:47;3.57;;;1.40;;
14143;SDS011;7152;48.348;10.980;2022-10-16T16:46:14;1.60;;;1.50;;
14143;SDS011;7152;48.348;10.980;2022-10-16T16:48:40;2.60;;;1.40;;
14143;SDS011;7152;48.348;10.980;2022-10-16T16:51:10;3.47;;;1.83;;
14143;SDS011;7152;48.348;10.980;2022-10-16T16:53:44;2.47;;;1.83;;
14143;SDS011;7152;48.348;10.980;2022-10-16T16:56:13;3.77;;;1.87;;
14143;SDS011;7152;48.348;10.980;2022-10-16T16:58:39;3.03;;;1.70;;
14143;SDS011;7152;48.348;10.980;2022-10-16T17:01:05;5.50;;;1.80;;
14143;SDS011;7152;48.348;10.980;2022-10-16T17:03:32;6.93;;;2.00;;
14143;SDS011;7152;48.348;10.980;2022-10-16T17:06:00;7.03;;;2.23;;
14143;SDS011;7152;48.348;10.980;2022-10-16T17:08:31;6.07;;;2.40;;
14143;SDS011;7152;48.348;10.980;2022-10-16T17:10:57;4.93;;;1.97;;